Impacts TAF Board INFO
IDs:

KDEN - Denver Intl, CO, US

Issued at 1358 UTC 05 Dec 2016
Updated at 1426 UTC 05 Dec 2016
Potential Impact None Slight Moderate High
Time1353Z 05/15Z 05/16Z 05/17Z 05/18Z 05/19Z 05/20Z 05/21Z 05/22Z 05/23Z 06/00Z 06/01Z 06/02Z 06/03Z
Type OBS PRVL PRVL PRVL PRVL PRVL PRVL PRVL PRVL PRVL PRVL PRVL PRVL PRVL
VIS 10 >6 >6 >6 >6 >6 >6 >6 >6 >6 >6 >6 >6 >6
CIG 220 -- -- -- -- -- -- -- -- -- -- -- 120 120
Cover BKN SCT SCT SCT SCT SCT SCT SCT SCT SCT SCT SCT BKN BKN
FltCat VFR VFR VFR VFR VFR VFR VFR VFR VFR VFR VFR VFR VFR VFR
WX -- -- -- -- -- -- -- -- -- -- -- -- -- --
WDir 330 250 250 280 280 280 280 280 320 320 320 320 10 10
WSpd 3 12 12 20 20 20 20 20 15 15 15 15 14 14
WGst -- -- -- 35 35 35 35 35 25 25 25 25 22 22

Raw TAF
KDEN 051358Z 0514/0618 31006KT P6SM SCT060 BKN200
  FM051500 25012KT P6SM FEW100 SCT220
  FM051700 28020G35KT P6SM SCT100 SCT200
  FM052200 32015G25KT P6SM SCT090 SCT200
  FM060200 01014G22KT P6SM SCT080 BKN120
  FM060400 06012KT P6SM SCT070 BKN110
  FM060600 09007KT P6SM SCT060 BKN100


Raw METAR
KDEN 051353Z 33003KT 10SM SCT060 BKN220 01/M08 A2959 RMK AO2 SLP022 VIRGA T00111083
KDEN 051253Z 13004KT 10SM FEW060 SCT220 00/M09 A2958 RMK AO2 SLP018 T00001089
KDEN 051153Z 13006KT 10SM FEW060 SCT220 06/M09 A2957 RMK AO2 SLP990 T00561094 10094 21017 57018

METAR Board
Radar Display
Forecast Discussion